Varva — A8UP7 — position and weather

sailwx.info

Track history (hours):
 
Tides and Currents Weather Stations Pressure Air Temp Water Temp Dewpoint Dewpoint Depression Visibility Wind Speed Wind Dir Waves Ship Positions

Varva

Last reported at 2015-Jul-31 06:30 UTC. Time now 2015-Aug-03 00:30 UTC.
Position N 46°33' E 030°59'.

Length 224 m; draft 7.7 m.

Type: Cargo ship. MMSI: 636014536.

Date/timePositionNaut miles runAvg speedWind from/ knotsBaromVisibWave heightAir tempDewpointWater temp
2015-Jul-31 06:30N 46°33' E 030°59'4 1.9
2015-Jul-31 04:28N 46°29' E 030°57'910.4
2015-Jul-31 03:33N 46°20' E 030°58'1211.7
2015-Jul-31 02:32N 46°10' E 031°07'1111.0
2015-Jul-31 01:33N 45°59' E 031°04'1111.2
2015-Jul-31 00:33N 45°49' E 030°60'1111.1
2015-Jul-30 23:33N 45°38' E 030°55'1111.2
2015-Jul-30 22:33N 45°27' E 030°51'1111.2
2015-Jul-30 21:33N 45°16' E 030°46'1111.1
2015-Jul-30 20:33N 45°06' E 030°41'1111.2
2015-Jul-30 19:33N 44°55' E 030°36'1211.4
2015-Jul-30 18:32N 44°45' E 030°29'43 4.5
2015-Jul-30 09:05N 44°04' E 030°09'1 0.2
2015-Jul-30 05:33N 44°04' E 030°10'0 0.2
2015-Jul-30 04:33N 44°04' E 030°10'0 0.2
2015-Jul-30 03:33N 44°03' E 030°10'  
2015-Jul-23 18:28N 40°46' E 029°31'0 0.0
2015-Jul-23 03:22N 40°46' E 029°31'0 0.0
2015-Jul-23 01:10N 40°46' E 029°31'0 0.0
2015-Jul-23 00:16N 40°46' E 029°31'0 0.0
2015-Jul-22 19:22N 40°46' E 029°31'0 0.0
2015-Jul-22 16:09N 40°46' E 029°31'  
Track history (hours):
 
Tides and Currents Weather Stations Pressure Air Temp Water Temp Dewpoint Dewpoint Depression Visibility Wind Speed Wind Dir Waves Ship Positions

Varva

Last reported at 2015-Jul-31 06:30 UTC. Time now 2015-Aug-03 00:30 UTC.
Position N 46°33' E 030°59'.

Length 224 m; draft 7.7 m.

Type: Cargo ship. MMSI: 636014536.

Date/timePositionNaut miles runAvg speedWind from/ knotsBaromVisibWave heightAir tempDewpointWater temp
2015-Jul-31 06:30N 46°33' E 030°59'4 1.9
2015-Jul-31 04:28N 46°29' E 030°57'910.4
2015-Jul-31 03:33N 46°20' E 030°58'1211.7
2015-Jul-31 02:32N 46°10' E 031°07'1111.0
2015-Jul-31 01:33N 45°59' E 031°04'1111.2
2015-Jul-31 00:33N 45°49' E 030°60'1111.1
2015-Jul-30 23:33N 45°38' E 030°55'1111.2
2015-Jul-30 22:33N 45°27' E 030°51'1111.2
2015-Jul-30 21:33N 45°16' E 030°46'1111.1
2015-Jul-30 20:33N 45°06' E 030°41'1111.2
2015-Jul-30 19:33N 44°55' E 030°36'1211.4
2015-Jul-30 18:32N 44°45' E 030°29'43 4.5
2015-Jul-30 09:05N 44°04' E 030°09'1 0.2
2015-Jul-30 05:33N 44°04' E 030°10'0 0.2
2015-Jul-30 04:33N 44°04' E 030°10'0 0.2
2015-Jul-30 03:33N 44°03' E 030°10'  
2015-Jul-23 18:28N 40°46' E 029°31'0 0.0
2015-Jul-23 03:22N 40°46' E 029°31'0 0.0
2015-Jul-23 01:10N 40°46' E 029°31'0 0.0
2015-Jul-23 00:16N 40°46' E 029°31'0 0.0
2015-Jul-22 19:22N 40°46' E 029°31'0 0.0
2015-Jul-22 16:09N 40°46' E 029°31'  

Dump ship's entire track history